sensor_id;sensor_type;location;lat;lon;timestamp;P1;durP1;ratioP1;P2;durP2;ratioP2
70477;SDS011;57956;53.362;-1.518;2023-06-10T00:00:48;8.47;;;2.97;;
70477;SDS011;57956;53.362;-1.518;2023-06-10T00:03:13;9.13;;;3.33;;
70477;SDS011;57956;53.362;-1.518;2023-06-10T00:05:39;11.38;;;3.85;;
70477;SDS011;57956;53.362;-1.518;2023-06-10T00:08:05;10.80;;;3.23;;
70477;SDS011;57956;53.362;-1.518;2023-06-10T00:10:36;9.10;;;3.10;;
70477;SDS011;57956;53.362;-1.518;2023-06-10T00:13:03;9.77;;;3.70;;
70477;SDS011;57956;53.362;-1.518;2023-06-10T00:15:29;9.38;;;3.22;;
70477;SDS011;57956;53.362;-1.518;2023-06-10T00:17:57;9.40;;;3.10;;
70477;SDS011;57956;53.362;-1.518;2023-06-10T00:20:22;7.93;;;2.77;;
70477;SDS011;57956;53.362;-1.518;2023-06-10T00:22:49;7.87;;;2.93;;
70477;SDS011;57956;53.362;-1.518;2023-06-10T00:25:14;11.25;;;3.30;;
70477;SDS011;57956;53.362;-1.518;2023-06-10T00:27:39;10.40;;;3.33;;
70477;SDS011;57956;53.362;-1.518;2023-06-10T00:30:05;15.53;;;3.77;;
70477;SDS011;57956;53.362;-1.518;2023-06-10T00:32:32;13.90;;;4.78;;
70477;SDS011;57956;53.362;-1.518;2023-06-10T00:34:57;15.20;;;5.27;;
70477;SDS011;57956;53.362;-1.518;2023-06-10T00:37:22;14.23;;;4.73;;
70477;SDS011;57956;53.362;-1.518;2023-06-10T00:39:48;16.80;;;5.63;;
70477;SDS011;57956;53.362;-1.518;2023-06-10T00:42:13;12.77;;;5.03;;
70477;SDS011;57956;53.362;-1.518;2023-06-10T00:44:38;16.23;;;5.07;;
70477;SDS011;57956;53.362;-1.518;2023-06-10T00:47:03;15.20;;;5.00;;
70477;SDS011;57956;53.362;-1.518;2023-06-10T00:49:29;16.53;;;5.57;;
70477;SDS011;57956;53.362;-1.518;2023-06-10T00:51:54;17.07;;;4.93;;
70477;SDS011;57956;53.362;-1.518;2023-06-10T00:54:19;21.37;;;6.40;;
70477;SDS011;57956;53.362;-1.518;2023-06-10T00:56:45;17.67;;;5.03;;
70477;SDS011;57956;53.362;-1.518;2023-06-10T00:59:12;17.83;;;5.95;;
70477;SDS011;57956;53.362;-1.518;2023-06-10T01:01:39;14.43;;;5.65;;
70477;SDS011;57956;53.362;-1.518;2023-06-10T01:04:04;13.00;;;5.27;;
70477;SDS011;57956;53.362;-1.518;2023-06-10T01:06:38;12.47;;;4.63;;
70477;SDS011;57956;53.362;-1.518;2023-06-10T01:11:47;21.60;;;4.70;;
70477;SDS011;57956;53.362;-1.518;2023-06-10T01:14:14;12.27;;;5.63;;
70477;SDS011;57956;53.362;-1.518;2023-06-10T01:16:40;16.85;;;5.63;;
70477;SDS011;57956;53.362;-1.518;2023-06-10T01:19:06;13.33;;;4.93;;
70477;SDS011;57956;53.362;-1.518;2023-06-10T01:21:31;14.40;;;4.53;;
70477;SDS011;57956;53.362;-1.518;2023-06-10T01:23:57;21.57;;;6.07;;
70477;SDS011;57956;53.362;-1.518;2023-06-10T01:26:24;15.18;;;4.57;;
70477;SDS011;57956;53.362;-1.518;2023-06-10T01:28:55;12.73;;;3.88;;
70477;SDS011;57956;53.362;-1.518;2023-06-10T01:34:07;13.87;;;4.87;;
70477;SDS011;57956;53.362;-1.518;2023-06-10T01:36:33;16.03;;;5.07;;
70477;SDS011;57956;53.362;-1.518;2023-06-10T01:39:00;23.08;;;5.63;;
70477;SDS011;57956;53.362;-1.518;2023-06-10T01:41:25;13.68;;;4.13;;
70477;SDS011;57956;53.362;-1.518;2023-06-10T01:43:51;12.80;;;5.27;;
70477;SDS011;57956;53.362;-1.518;2023-06-10T01:46:16;15.47;;;5.27;;
70477;SDS011;57956;53.362;-1.518;2023-06-10T01:48:44;12.85;;;5.13;;
70477;SDS011;57956;53.362;-1.518;2023-06-10T01:51:10;14.43;;;4.80;;
70477;SDS011;57956;53.362;-1.518;2023-06-10T01:53:35;17.63;;;5.73;;
70477;SDS011;57956;53.362;-1.518;2023-06-10T01:56:00;15.10;;;5.13;;
70477;SDS011;57956;53.362;-1.518;2023-06-10T01:58:25;15.87;;;4.37;;
70477;SDS011;57956;53.362;-1.518;2023-06-10T02:00:51;16.33;;;4.57;;
70477;SDS011;57956;53.362;-1.518;2023-06-10T02:03:16;14.40;;;5.10;;
70477;SDS011;57956;53.362;-1.518;2023-06-10T02:05:41;16.13;;;4.83;;
70477;SDS011;57956;53.362;-1.518;2023-06-10T02:08:06;15.33;;;4.93;;
70477;SDS011;57956;53.362;-1.518;2023-06-10T02:10:31;12.07;;;4.37;;
70477;SDS011;57956;53.362;-1.518;2023-06-10T02:12:57;17.93;;;5.53;;
70477;SDS011;57956;53.362;-1.518;2023-06-10T02:15:22;15.10;;;4.93;;
70477;SDS011;57956;53.362;-1.518;2023-06-10T02:17:47;21.50;;;5.53;;
70477;SDS011;57956;53.362;-1.518;2023-06-10T02:20:14;17.08;;;6.15;;
70477;SDS011;57956;53.362;-1.518;2023-06-10T02:22:39;16.93;;;5.30;;
70477;SDS011;57956;53.362;-1.518;2023-06-10T02:25:05;13.23;;;5.20;;
70477;SDS011;57956;53.362;-1.518;2023-06-10T02:27:30;16.90;;;5.10;;
70477;SDS011;57956;53.362;-1.518;2023-06-10T02:29:56;16.80;;;4.80;;
70477;SDS011;57956;53.362;-1.518;2023-06-10T02:32:22;14.88;;;4.60;;
70477;SDS011;57956;53.362;-1.518;2023-06-10T02:34:47;16.23;;;4.20;;
70477;SDS011;57956;53.362;-1.518;2023-06-10T02:37:14;17.10;;;4.75;;
70477;SDS011;57956;53.362;-1.518;2023-06-10T02:39:39;10.50;;;4.45;;
70477;SDS011;57956;53.362;-1.518;2023-06-10T02:42:05;14.73;;;4.27;;
70477;SDS011;57956;53.362;-1.518;2023-06-10T02:44:30;14.23;;;4.23;;
70477;SDS011;57956;53.362;-1.518;2023-06-10T02:46:55;15.17;;;4.70;;
70477;SDS011;57956;53.362;-1.518;2023-06-10T02:49:20;16.77;;;5.27;;
70477;SDS011;57956;53.362;-1.518;2023-06-10T02:51:46;16.43;;;5.60;;
70477;SDS011;57956;53.362;-1.518;2023-06-10T02:54:11;15.60;;;5.20;;
70477;SDS011;57956;53.362;-1.518;2023-06-10T02:56:36;16.13;;;4.60;;
70477;SDS011;57956;53.362;-1.518;2023-06-10T02:59:02;15.97;;;5.07;;
70477;SDS011;57956;53.362;-1.518;2023-06-10T03:01:27;16.30;;;4.80;;
70477;SDS011;57956;53.362;-1.518;2023-06-10T03:03:52;17.63;;;4.50;;
70477;SDS011;57956;53.362;-1.518;2023-06-10T03:06:18;15.17;;;4.70;;
70477;SDS011;57956;53.362;-1.518;2023-06-10T03:08:43;15.37;;;5.07;;
70477;SDS011;57956;53.362;-1.518;2023-06-10T03:11:08;11.17;;;4.50;;
70477;SDS011;57956;53.362;-1.518;2023-06-10T03:13:33;15.57;;;4.60;;
70477;SDS011;57956;53.362;-1.518;2023-06-10T03:15:59;12.07;;;4.23;;
70477;SDS011;57956;53.362;-1.518;2023-06-10T03:18:27;14.13;;;3.97;;
70477;SDS011;57956;53.362;-1.518;2023-06-10T03:20:53;16.13;;;4.95;;
70477;SDS011;57956;53.362;-1.518;2023-06-10T03:23:18;13.15;;;4.00;;
70477;SDS011;57956;53.362;-1.518;2023-06-10T03:25:44;12.77;;;5.17;;
70477;SDS011;57956;53.362;-1.518;2023-06-10T03:28:09;12.07;;;4.33;;
70477;SDS011;57956;53.362;-1.518;2023-06-10T03:30:35;17.93;;;4.53;;
70477;SDS011;57956;53.362;-1.518;2023-06-10T03:33:00;18.20;;;5.30;;
70477;SDS011;57956;53.362;-1.518;2023-06-10T03:35:25;18.47;;;5.10;;
70477;SDS011;57956;53.362;-1.518;2023-06-10T03:37:51;17.37;;;4.87;;
70477;SDS011;57956;53.362;-1.518;2023-06-10T03:40:16;15.13;;;4.53;;
70477;SDS011;57956;53.362;-1.518;2023-06-10T03:42:41;12.83;;;3.60;;
70477;SDS011;57956;53.362;-1.518;2023-06-10T03:45:06;12.87;;;4.60;;
70477;SDS011;57956;53.362;-1.518;2023-06-10T03:47:35;18.43;;;4.47;;
70477;SDS011;57956;53.362;-1.518;2023-06-10T03:50:01;15.27;;;4.25;;
70477;SDS011;57956;53.362;-1.518;2023-06-10T03:52:26;15.52;;;4.78;;
70477;SDS011;57956;53.362;-1.518;2023-06-10T03:54:51;14.10;;;4.20;;
70477;SDS011;57956;53.362;-1.518;2023-06-10T03:57:16;14.43;;;5.20;;
70477;SDS011;57956;53.362;-1.518;2023-06-10T03:59:42;14.53;;;4.17;;
70477;SDS011;57956;53.362;-1.518;2023-06-10T04:02:07;17.17;;;3.83;;
70477;SDS011;57956;53.362;-1.518;2023-06-10T04:04:33;18.25;;;4.50;;
70477;SDS011;57956;53.362;-1.518;2023-06-10T04:06:59;13.40;;;4.47;;
70477;SDS011;57956;53.362;-1.518;2023-06-10T04:09:24;12.57;;;4.83;;
70477;SDS011;57956;53.362;-1.518;2023-06-10T04:11:50;16.95;;;5.60;;
70477;SDS011;57956;53.362;-1.518;2023-06-10T04:14:16;12.07;;;3.77;;
70477;SDS011;57956;53.362;-1.518;2023-06-10T04:16:41;20.98;;;5.30;;
70477;SDS011;57956;53.362;-1.518;2023-06-10T04:19:07;16.30;;;4.37;;
70477;SDS011;57956;53.362;-1.518;2023-06-10T04:21:32;24.45;;;5.07;;
70477;SDS011;57956;53.362;-1.518;2023-06-10T04:23:58;13.40;;;4.17;;
70477;SDS011;57956;53.362;-1.518;2023-06-10T04:26:23;13.53;;;4.17;;
70477;SDS011;57956;53.362;-1.518;2023-06-10T04:28:48;15.93;;;3.43;;
70477;SDS011;57956;53.362;-1.518;2023-06-10T04:31:13;14.50;;;4.17;;
70477;SDS011;57956;53.362;-1.518;2023-06-10T04:33:38;8.80;;;3.50;;
70477;SDS011;57956;53.362;-1.518;2023-06-10T04:36:04;11.47;;;3.13;;
70477;SDS011;57956;53.362;-1.518;2023-06-10T04:38:31;15.45;;;4.10;;
70477;SDS011;57956;53.362;-1.518;2023-06-10T04:40:56;14.03;;;4.13;;
70477;SDS011;57956;53.362;-1.518;2023-06-10T04:43:22;12.63;;;3.27;;
70477;SDS011;57956;53.362;-1.518;2023-06-10T04:45:47;13.53;;;4.10;;
70477;SDS011;57956;53.362;-1.518;2023-06-10T04:48:12;14.37;;;3.50;;
70477;SDS011;57956;53.362;-1.518;2023-06-10T04:50:38;12.38;;;3.97;;
70477;SDS011;57956;53.362;-1.518;2023-06-10T04:53:04;13.07;;;3.57;;
70477;SDS011;57956;53.362;-1.518;2023-06-10T04:55:29;14.23;;;3.83;;
70477;SDS011;57956;53.362;-1.518;2023-06-10T04:57:54;14.53;;;4.00;;
70477;SDS011;57956;53.362;-1.518;2023-06-10T05:00:19;11.88;;;3.13;;
70477;SDS011;57956;53.362;-1.518;2023-06-10T05:02:45;15.77;;;3.40;;
70477;SDS011;57956;53.362;-1.518;2023-06-10T05:05:14;14.68;;;3.20;;
70477;SDS011;57956;53.362;-1.518;2023-06-10T05:07:39;15.83;;;3.90;;
70477;SDS011;57956;53.362;-1.518;2023-06-10T05:10:05;8.57;;;2.93;;
70477;SDS011;57956;53.362;-1.518;2023-06-10T05:12:30;13.50;;;3.58;;
70477;SDS011;57956;53.362;-1.518;2023-06-10T05:14:55;12.83;;;3.67;;
70477;SDS011;57956;53.362;-1.518;2023-06-10T05:17:21;8.83;;;3.30;;
70477;SDS011;57956;53.362;-1.518;2023-06-10T05:19:46;9.10;;;3.30;;
70477;SDS011;57956;53.362;-1.518;2023-06-10T05:22:12;12.55;;;3.08;;
70477;SDS011;57956;53.362;-1.518;2023-06-10T05:24:38;12.13;;;3.63;;
70477;SDS011;57956;53.362;-1.518;2023-06-10T05:27:04;13.93;;;3.33;;
70477;SDS011;57956;53.362;-1.518;2023-06-10T05:29:29;10.20;;;3.23;;
70477;SDS011;57956;53.362;-1.518;2023-06-10T05:31:55;11.82;;;3.90;;
70477;SDS011;57956;53.362;-1.518;2023-06-10T05:34:22;8.57;;;3.17;;
70477;SDS011;57956;53.362;-1.518;2023-06-10T05:36:47;11.70;;;2.93;;
70477;SDS011;57956;53.362;-1.518;2023-06-10T05:39:12;14.93;;;2.67;;
70477;SDS011;57956;53.362;-1.518;2023-06-10T05:41:37;10.80;;;3.10;;
70477;SDS011;57956;53.362;-1.518;2023-06-10T05:44:02;11.13;;;2.87;;
70477;SDS011;57956;53.362;-1.518;2023-06-10T05:46:28;14.13;;;3.13;;
70477;SDS011;57956;53.362;-1.518;2023-06-10T05:48:53;8.73;;;2.53;;
70477;SDS011;57956;53.362;-1.518;2023-06-10T05:51:19;15.73;;;3.33;;
70477;SDS011;57956;53.362;-1.518;2023-06-10T05:53:44;11.37;;;3.60;;
70477;SDS011;57956;53.362;-1.518;2023-06-10T05:56:11;9.30;;;2.95;;
70477;SDS011;57956;53.362;-1.518;2023-06-10T05:58:37;11.83;;;2.93;;
70477;SDS011;57956;53.362;-1.518;2023-06-10T06:01:02;11.07;;;3.27;;
70477;SDS011;57956;53.362;-1.518;2023-06-10T06:03:27;8.97;;;3.07;;
70477;SDS011;57956;53.362;-1.518;2023-06-10T06:05:53;7.45;;;2.33;;
70477;SDS011;57956;53.362;-1.518;2023-06-10T06:08:18;9.77;;;3.03;;
70477;SDS011;57956;53.362;-1.518;2023-06-10T06:10:46;14.97;;;4.17;;
70477;SDS011;57956;53.362;-1.518;2023-06-10T06:13:12;14.48;;;2.88;;
70477;SDS011;57956;53.362;-1.518;2023-06-10T06:15:38;13.47;;;3.73;;
70477;SDS011;57956;53.362;-1.518;2023-06-10T06:18:03;9.60;;;3.47;;
70477;SDS011;57956;53.362;-1.518;2023-06-10T06:20:28;12.63;;;3.63;;
70477;SDS011;57956;53.362;-1.518;2023-06-10T06:22:55;8.95;;;2.83;;
70477;SDS011;57956;53.362;-1.518;2023-06-10T06:25:20;12.13;;;3.53;;
70477;SDS011;57956;53.362;-1.518;2023-06-10T06:27:45;9.40;;;3.57;;
70477;SDS011;57956;53.362;-1.518;2023-06-10T06:30:10;8.73;;;2.45;;
70477;SDS011;57956;53.362;-1.518;2023-06-10T06:32:36;11.03;;;2.87;;
70477;SDS011;57956;53.362;-1.518;2023-06-10T06:35:01;11.27;;;2.83;;
70477;SDS011;57956;53.362;-1.518;2023-06-10T06:37:27;13.50;;;3.37;;
70477;SDS011;57956;53.362;-1.518;2023-06-10T06:39:52;9.47;;;2.83;;
70477;SDS011;57956;53.362;-1.518;2023-06-10T06:42:18;13.17;;;3.17;;
70477;SDS011;57956;53.362;-1.518;2023-06-10T06:44:44;10.18;;;2.70;;
70477;SDS011;57956;53.362;-1.518;2023-06-10T06:47:09;10.20;;;3.70;;
70477;SDS011;57956;53.362;-1.518;2023-06-10T06:49:34;10.73;;;2.70;;
70477;SDS011;57956;53.362;-1.518;2023-06-10T06:51:59;7.47;;;2.80;;
70477;SDS011;57956;53.362;-1.518;2023-06-10T06:54:24;6.83;;;2.53;;
70477;SDS011;57956;53.362;-1.518;2023-06-10T06:56:50;8.47;;;2.93;;
70477;SDS011;57956;53.362;-1.518;2023-06-10T06:59:18;9.82;;;3.08;;
70477;SDS011;57956;53.362;-1.518;2023-06-10T07:01:44;11.55;;;2.92;;
70477;SDS011;57956;53.362;-1.518;2023-06-10T07:04:10;10.03;;;3.13;;
70477;SDS011;57956;53.362;-1.518;2023-06-10T07:06:35;9.20;;;4.17;;
70477;SDS011;57956;53.362;-1.518;2023-06-10T07:09:00;16.13;;;3.20;;
70477;SDS011;57956;53.362;-1.518;2023-06-10T07:11:25;6.87;;;2.60;;
70477;SDS011;57956;53.362;-1.518;2023-06-10T07:13:51;9.33;;;2.87;;
70477;SDS011;57956;53.362;-1.518;2023-06-10T07:16:16;10.10;;;2.60;;
70477;SDS011;57956;53.362;-1.518;2023-06-10T07:18:41;9.33;;;3.07;;
70477;SDS011;57956;53.362;-1.518;2023-06-10T07:21:07;8.70;;;2.87;;
70477;SDS011;57956;53.362;-1.518;2023-06-10T07:23:32;10.17;;;3.33;;
70477;SDS011;57956;53.362;-1.518;2023-06-10T07:25:57;8.40;;;2.77;;
70477;SDS011;57956;53.362;-1.518;2023-06-10T07:28:22;8.23;;;2.97;;
70477;SDS011;57956;53.362;-1.518;2023-06-10T07:30:51;10.77;;;3.53;;
70477;SDS011;57956;53.362;-1.518;2023-06-10T07:33:16;10.52;;;3.60;;
70477;SDS011;57956;53.362;-1.518;2023-06-10T07:35:41;11.07;;;3.50;;
70477;SDS011;57956;53.362;-1.518;2023-06-10T07:38:08;12.15;;;3.38;;
70477;SDS011;57956;53.362;-1.518;2023-06-10T07:40:33;13.03;;;2.63;;
70477;SDS011;57956;53.362;-1.518;2023-06-10T07:42:58;11.27;;;2.90;;
70477;SDS011;57956;53.362;-1.518;2023-06-10T07:45:23;9.57;;;2.70;;
70477;SDS011;57956;53.362;-1.518;2023-06-10T07:47:48;10.30;;;3.53;;
70477;SDS011;57956;53.362;-1.518;2023-06-10T07:50:14;10.50;;;2.87;;
70477;SDS011;57956;53.362;-1.518;2023-06-10T07:52:39;9.30;;;2.60;;
70477;SDS011;57956;53.362;-1.518;2023-06-10T07:55:04;10.07;;;2.80;;
70477;SDS011;57956;53.362;-1.518;2023-06-10T07:57:30;7.15;;;2.97;;
70477;SDS011;57956;53.362;-1.518;2023-06-10T07:59:59;7.90;;;2.33;;
70477;SDS011;57956;53.362;-1.518;2023-06-10T08:02:25;8.27;;;3.00;;
70477;SDS011;57956;53.362;-1.518;2023-06-10T08:04:50;10.17;;;3.23;;
70477;SDS011;57956;53.362;-1.518;2023-06-10T08:07:15;9.43;;;2.80;;
70477;SDS011;57956;53.362;-1.518;2023-06-10T08:09:43;6.47;;;2.58;;
70477;SDS011;57956;53.362;-1.518;2023-06-10T08:12:08;6.40;;;2.53;;
70477;SDS011;57956;53.362;-1.518;2023-06-10T08:14:33;7.23;;;2.43;;
70477;SDS011;57956;53.362;-1.518;2023-06-10T08:16:59;8.33;;;2.40;;
70477;SDS011;57956;53.362;-1.518;2023-06-10T08:19:24;11.63;;;3.17;;
70477;SDS011;57956;53.362;-1.518;2023-06-10T08:21:49;9.53;;;2.13;;
70477;SDS011;57956;53.362;-1.518;2023-06-10T08:24:14;7.17;;;2.53;;
70477;SDS011;57956;53.362;-1.518;2023-06-10T08:26:42;8.15;;;2.33;;
70477;SDS011;57956;53.362;-1.518;2023-06-10T08:29:08;7.07;;;2.30;;
70477;SDS011;57956;53.362;-1.518;2023-06-10T08:31:33;10.00;;;2.20;;
70477;SDS011;57956;53.362;-1.518;2023-06-10T08:33:58;7.00;;;2.77;;
70477;SDS011;57956;53.362;-1.518;2023-06-10T08:36:23;12.30;;;3.30;;
70477;SDS011;57956;53.362;-1.518;2023-06-10T08:38:49;8.87;;;2.37;;
70477;SDS011;57956;53.362;-1.518;2023-06-10T08:41:14;10.20;;;2.93;;
70477;SDS011;57956;53.362;-1.518;2023-06-10T08:43:42;9.10;;;3.07;;
70477;SDS011;57956;53.362;-1.518;2023-06-10T08:46:09;8.75;;;2.63;;
70477;SDS011;57956;53.362;-1.518;2023-06-10T08:48:35;6.18;;;2.78;;
70477;SDS011;57956;53.362;-1.518;2023-06-10T08:51:04;7.43;;;2.30;;
70477;SDS011;57956;53.362;-1.518;2023-06-10T08:53:30;9.53;;;2.77;;
70477;SDS011;57956;53.362;-1.518;2023-06-10T08:55:56;8.18;;;2.60;;
70477;SDS011;57956;53.362;-1.518;2023-06-10T08:58:23;8.30;;;3.00;;
70477;SDS011;57956;53.362;-1.518;2023-06-10T09:00:50;7.78;;;2.70;;
70477;SDS011;57956;53.362;-1.518;2023-06-10T09:03:15;10.30;;;3.60;;
70477;SDS011;57956;53.362;-1.518;2023-06-10T09:05:41;6.50;;;2.30;;
70477;SDS011;57956;53.362;-1.518;2023-06-10T09:08:06;6.03;;;2.10;;
70477;SDS011;57956;53.362;-1.518;2023-06-10T09:10:33;13.30;;;3.17;;
70477;SDS011;57956;53.362;-1.518;2023-06-10T09:12:58;6.07;;;2.20;;
70477;SDS011;57956;53.362;-1.518;2023-06-10T09:15:24;8.77;;;2.70;;
70477;SDS011;57956;53.362;-1.518;2023-06-10T09:17:49;7.88;;;2.50;;
70477;SDS011;57956;53.362;-1.518;2023-06-10T09:20:16;6.77;;;2.63;;
70477;SDS011;57956;53.362;-1.518;2023-06-10T09:22:41;7.25;;;2.67;;
70477;SDS011;57956;53.362;-1.518;2023-06-10T09:25:08;10.27;;;3.03;;
70477;SDS011;57956;53.362;-1.518;2023-06-10T09:27:46;6.38;;;2.60;;
70477;SDS011;57956;53.362;-1.518;2023-06-10T09:30:35;6.78;;;2.20;;
70477;SDS011;57956;53.362;-1.518;2023-06-10T09:33:00;9.18;;;2.65;;
70477;SDS011;57956;53.362;-1.518;2023-06-10T09:35:26;7.30;;;2.38;;
70477;SDS011;57956;53.362;-1.518;2023-06-10T09:37:52;9.50;;;2.47;;
70477;SDS011;57956;53.362;-1.518;2023-06-10T09:40:18;9.18;;;2.63;;
70477;SDS011;57956;53.362;-1.518;2023-06-10T09:42:43;10.63;;;3.50;;
70477;SDS011;57956;53.362;-1.518;2023-06-10T09:45:08;11.80;;;3.80;;
70477;SDS011;57956;53.362;-1.518;2023-06-10T09:47:33;7.07;;;2.63;;
70477;SDS011;57956;53.362;-1.518;2023-06-10T09:49:58;9.67;;;2.70;;
70477;SDS011;57956;53.362;-1.518;2023-06-10T09:52:25;8.07;;;2.70;;
70477;SDS011;57956;53.362;-1.518;2023-06-10T09:54:51;7.30;;;2.53;;
70477;SDS011;57956;53.362;-1.518;2023-06-10T09:57:17;7.18;;;2.75;;
70477;SDS011;57956;53.362;-1.518;2023-06-10T09:59:42;11.40;;;2.60;;
70477;SDS011;57956;53.362;-1.518;2023-06-10T10:02:14;7.50;;;3.07;;
70477;SDS011;57956;53.362;-1.518;2023-06-10T10:04:40;8.93;;;3.30;;
70477;SDS011;57956;53.362;-1.518;2023-06-10T10:07:05;10.87;;;3.00;;
70477;SDS011;57956;53.362;-1.518;2023-06-10T10:09:32;11.27;;;3.43;;
70477;SDS011;57956;53.362;-1.518;2023-06-10T10:11:57;10.53;;;4.37;;
70477;SDS011;57956;53.362;-1.518;2023-06-10T10:14:22;9.60;;;3.53;;
70477;SDS011;57956;53.362;-1.518;2023-06-10T10:16:48;9.55;;;3.55;;
70477;SDS011;57956;53.362;-1.518;2023-06-10T10:19:16;11.60;;;3.55;;
70477;SDS011;57956;53.362;-1.518;2023-06-10T10:21:44;10.68;;;3.13;;
70477;SDS011;57956;53.362;-1.518;2023-06-10T10:24:17;8.60;;;3.13;;
70477;SDS011;57956;53.362;-1.518;2023-06-10T10:26:43;12.23;;;3.60;;
70477;SDS011;57956;53.362;-1.518;2023-06-10T10:29:16;9.95;;;3.58;;
70477;SDS011;57956;53.362;-1.518;2023-06-10T10:31:43;7.83;;;3.53;;
70477;SDS011;57956;53.362;-1.518;2023-06-10T10:34:12;10.52;;;3.33;;
70477;SDS011;57956;53.362;-1.518;2023-06-10T10:36:38;11.38;;;3.95;;
70477;SDS011;57956;53.362;-1.518;2023-06-10T10:39:04;8.87;;;3.53;;
70477;SDS011;57956;53.362;-1.518;2023-06-10T10:41:29;8.13;;;3.33;;
70477;SDS011;57956;53.362;-1.518;2023-06-10T10:43:55;10.90;;;3.58;;
70477;SDS011;57956;53.362;-1.518;2023-06-10T10:46:21;8.17;;;2.70;;
70477;SDS011;57956;53.362;-1.518;2023-06-10T10:48:47;7.90;;;3.10;;
70477;SDS011;57956;53.362;-1.518;2023-06-10T10:51:16;10.50;;;3.60;;
70477;SDS011;57956;53.362;-1.518;2023-06-10T10:53:42;10.90;;;3.27;;
70477;SDS011;57956;53.362;-1.518;2023-06-10T10:56:12;15.00;;;2.97;;
70477;SDS011;57956;53.362;-1.518;2023-06-10T10:58:38;7.65;;;2.65;;
70477;SDS011;57956;53.362;-1.518;2023-06-10T11:01:13;8.30;;;3.20;;
70477;SDS011;57956;53.362;-1.518;2023-06-10T11:03:42;8.52;;;2.90;;
70477;SDS011;57956;53.362;-1.518;2023-06-10T11:06:15;7.72;;;3.05;;
70477;SDS011;57956;53.362;-1.518;2023-06-10T11:11:19;7.37;;;3.17;;
70477;SDS011;57956;53.362;-1.518;2023-06-10T11:13:58;6.55;;;2.80;;
70477;SDS011;57956;53.362;-1.518;2023-06-10T11:16:27;9.20;;;3.93;;
70477;SDS011;57956;53.362;-1.518;2023-06-10T11:18:55;10.10;;;3.08;;
70477;SDS011;57956;53.362;-1.518;2023-06-10T11:21:22;6.80;;;2.90;;
70477;SDS011;57956;53.362;-1.518;2023-06-10T11:23:48;6.60;;;3.03;;
70477;SDS011;57956;53.362;-1.518;2023-06-10T11:31:24;7.25;;;3.08;;
70477;SDS011;57956;53.362;-1.518;2023-06-10T11:33:52;10.80;;;3.67;;
70477;SDS011;57956;53.362;-1.518;2023-06-10T11:36:17;7.50;;;3.05;;
70477;SDS011;57956;53.362;-1.518;2023-06-10T11:38:42;8.33;;;3.60;;
70477;SDS011;57956;53.362;-1.518;2023-06-10T11:41:08;7.13;;;3.30;;
70477;SDS011;57956;53.362;-1.518;2023-06-10T11:43:33;8.63;;;3.07;;
70477;SDS011;57956;53.362;-1.518;2023-06-10T11:45:59;9.65;;;3.35;;
70477;SDS011;57956;53.362;-1.518;2023-06-10T11:48:25;10.13;;;3.03;;
70477;SDS011;57956;53.362;-1.518;2023-06-10T11:50:53;11.38;;;3.15;;
70477;SDS011;57956;53.362;-1.518;2023-06-10T11:53:18;8.17;;;3.20;;
70477;SDS011;57956;53.362;-1.518;2023-06-10T11:58:13;9.40;;;3.37;;
70477;SDS011;57956;53.362;-1.518;2023-06-10T12:00:48;9.80;;;3.07;;
70477;SDS011;57956;53.362;-1.518;2023-06-10T12:03:13;12.67;;;3.57;;
70477;SDS011;57956;53.362;-1.518;2023-06-10T12:05:39;9.48;;;3.47;;
70477;SDS011;57956;53.362;-1.518;2023-06-10T12:08:08;10.70;;;3.20;;
70477;SDS011;57956;53.362;-1.518;2023-06-10T12:10:33;9.40;;;3.45;;
70477;SDS011;57956;53.362;-1.518;2023-06-10T12:13:03;11.47;;;3.03;;
70477;SDS011;57956;53.362;-1.518;2023-06-10T12:15:28;9.97;;;3.40;;
70477;SDS011;57956;53.362;-1.518;2023-06-10T12:17:54;6.67;;;3.40;;
70477;SDS011;57956;53.362;-1.518;2023-06-10T12:20:26;8.33;;;3.03;;
70477;SDS011;57956;53.362;-1.518;2023-06-10T12:22:52;11.15;;;3.33;;
70477;SDS011;57956;53.362;-1.518;2023-06-10T12:25:17;10.43;;;3.40;;
70477;SDS011;57956;53.362;-1.518;2023-06-10T12:27:52;8.65;;;3.30;;
70477;SDS011;57956;53.362;-1.518;2023-06-10T12:30:21;11.17;;;3.37;;
70477;SDS011;57956;53.362;-1.518;2023-06-10T12:32:46;9.40;;;3.47;;
70477;SDS011;57956;53.362;-1.518;2023-06-10T12:35:13;7.63;;;3.10;;
70477;SDS011;57956;53.362;-1.518;2023-06-10T12:37:39;8.13;;;2.87;;
70477;SDS011;57956;53.362;-1.518;2023-06-10T12:40:05;8.23;;;3.40;;
70477;SDS011;57956;53.362;-1.518;2023-06-10T12:42:37;10.32;;;3.55;;
70477;SDS011;57956;53.362;-1.518;2023-06-10T12:45:03;10.37;;;3.73;;
70477;SDS011;57956;53.362;-1.518;2023-06-10T12:47:29;9.15;;;3.72;;
70477;SDS011;57956;53.362;-1.518;2023-06-10T12:49:54;9.25;;;3.00;;
70477;SDS011;57956;53.362;-1.518;2023-06-10T12:52:19;11.23;;;3.70;;
70477;SDS011;57956;53.362;-1.518;2023-06-10T12:54:45;10.60;;;3.13;;
70477;SDS011;57956;53.362;-1.518;2023-06-10T12:57:10;6.97;;;3.47;;
70477;SDS011;57956;53.362;-1.518;2023-06-10T12:59:35;9.45;;;3.35;;
70477;SDS011;57956;53.362;-1.518;2023-06-10T13:02:01;8.80;;;3.67;;
70477;SDS011;57956;53.362;-1.518;2023-06-10T13:04:26;7.97;;;3.47;;
70477;SDS011;57956;53.362;-1.518;2023-06-10T13:06:52;6.37;;;3.13;;
70477;SDS011;57956;53.362;-1.518;2023-06-10T13:09:17;8.27;;;3.77;;
70477;SDS011;57956;53.362;-1.518;2023-06-10T13:11:42;9.80;;;4.03;;
70477;SDS011;57956;53.362;-1.518;2023-06-10T13:14:08;9.13;;;3.33;;
70477;SDS011;57956;53.362;-1.518;2023-06-10T13:16:33;10.70;;;3.40;;
70477;SDS011;57956;53.362;-1.518;2023-06-10T13:18:58;8.00;;;3.50;;
70477;SDS011;57956;53.362;-1.518;2023-06-10T13:21:24;7.97;;;3.33;;
70477;SDS011;57956;53.362;-1.518;2023-06-10T13:23:50;6.87;;;3.27;;
70477;SDS011;57956;53.362;-1.518;2023-06-10T13:26:16;9.75;;;3.70;;
70477;SDS011;57956;53.362;-1.518;2023-06-10T13:28:42;10.03;;;3.43;;
70477;SDS011;57956;53.362;-1.518;2023-06-10T13:31:07;9.73;;;4.13;;
70477;SDS011;57956;53.362;-1.518;2023-06-10T13:33:32;6.67;;;3.17;;
70477;SDS011;57956;53.362;-1.518;2023-06-10T13:35:58;9.07;;;3.47;;
70477;SDS011;57956;53.362;-1.518;2023-06-10T13:38:23;6.90;;;3.40;;
70477;SDS011;57956;53.362;-1.518;2023-06-10T13:40:48;7.97;;;3.70;;
70477;SDS011;57956;53.362;-1.518;2023-06-10T13:43:13;10.30;;;4.13;;
70477;SDS011;57956;53.362;-1.518;2023-06-10T13:45:39;6.75;;;3.22;;
70477;SDS011;57956;53.362;-1.518;2023-06-10T13:48:04;6.30;;;2.93;;
70477;SDS011;57956;53.362;-1.518;2023-06-10T13:50:31;8.15;;;3.63;;
70477;SDS011;57956;53.362;-1.518;2023-06-10T13:52:56;6.97;;;3.73;;
70477;SDS011;57956;53.362;-1.518;2023-06-10T13:55:21;6.97;;;3.70;;
70477;SDS011;57956;53.362;-1.518;2023-06-10T13:57:46;7.70;;;3.73;;
70477;SDS011;57956;53.362;-1.518;2023-06-10T14:00:12;7.10;;;3.53;;
70477;SDS011;57956;53.362;-1.518;2023-06-10T14:02:37;7.40;;;3.97;;
70477;SDS011;57956;53.362;-1.518;2023-06-10T14:05:04;8.35;;;3.78;;
70477;SDS011;57956;53.362;-1.518;2023-06-10T14:07:30;8.82;;;3.28;;
70477;SDS011;57956;53.362;-1.518;2023-06-10T14:09:55;7.83;;;3.70;;
70477;SDS011;57956;53.362;-1.518;2023-06-10T14:12:21;6.60;;;3.80;;
70477;SDS011;57956;53.362;-1.518;2023-06-10T14:14:47;6.45;;;3.17;;
70477;SDS011;57956;53.362;-1.518;2023-06-10T14:17:12;7.80;;;3.93;;
70477;SDS011;57956;53.362;-1.518;2023-06-10T14:19:37;8.10;;;3.60;;
70477;SDS011;57956;53.362;-1.518;2023-06-10T14:22:03;7.67;;;3.60;;
70477;SDS011;57956;53.362;-1.518;2023-06-10T14:24:28;6.33;;;3.43;;
70477;SDS011;57956;53.362;-1.518;2023-06-10T14:26:53;6.57;;;3.30;;
70477;SDS011;57956;53.362;-1.518;2023-06-10T14:29:18;6.00;;;3.53;;
70477;SDS011;57956;53.362;-1.518;2023-06-10T14:31:44;7.47;;;3.50;;
70477;SDS011;57956;53.362;-1.518;2023-06-10T14:34:09;7.95;;;4.05;;
70477;SDS011;57956;53.362;-1.518;2023-06-10T14:36:34;10.67;;;4.40;;